Time;durP1;ratioP1;P1;durP2;ratioP2;P2;SDS_P1;SDS_P2;PMS_P1;PMS_P2;Temp;Humidity;BMP_temperature;BMP_pressure;BME280_temperature;BME280_humidity;BME280_pressure;Samples;Min_cycle;Max_cycle;Signal;HPM_P1;HPM_P2
2022/05/20 00:02:01;;;;;;;7.22;6.93;;;;;;;21.13;63.01;101621.97;5033187;28;20503;-61
2022/05/20 00:04:26;;;;;;;7.57;7.28;;;;;;;21.17;62.72;101617.91;5033552;28;20029;-61
2022/05/20 00:06:52;;;;;;;8.43;8.02;;;;;;;21.21;63.17;101611.06;5034081;28;20060;-61
2022/05/20 00:09:17;;;;;;;7.63;7.13;;;;;;;21.24;63.59;101613.47;5032532;28;20102;-61
2022/05/20 00:11:43;;;;;;;7.82;7.43;;;;;;;21.28;63.71;101601.16;5033640;28;20024;-61
2022/05/20 00:14:08;;;;;;;7.50;7.10;;;;;;;21.28;64.36;101608.50;5033740;28;20025;-61
2022/05/20 00:16:37;;;;;;;7.25;6.95;;;;;;;21.34;64.37;101601.50;5033433;28;20044;-61
2022/05/20 00:19:05;;;;;;;7.38;7.07;;;;;;;21.35;63.79;101593.13;5033662;28;20465;-60
2022/05/20 00:21:31;;;;;;;7.60;7.30;;;;;;;21.37;64.68;101590.22;5033198;28;20049;-61
2022/05/20 00:23:57;;;;;;;7.32;7.03;;;;;;;21.38;64.26;101584.56;5033457;28;20518;-61
2022/05/20 00:26:24;;;;;;;7.30;7.00;;;;;;;21.41;64.66;101584.22;5033778;28;20033;-61
2022/05/20 00:28:50;;;;;;;7.32;7.03;;;;;;;21.44;63.94;101588.47;5034291;28;20029;-61
2022/05/20 00:31:16;;;;;;;7.50;7.20;;;;;;;21.46;63.83;101591.91;5033483;28;20049;-61
2022/05/20 00:33:42;;;;;;;7.10;6.80;;;;;;;21.49;64.11;101599.75;5033413;28;20092;-61
2022/05/20 00:36:08;;;;;;;7.90;7.40;;;;;;;21.49;63.57;101597.00;5033478;28;20116;-61
2022/05/20 00:38:34;;;;;;;7.38;7.07;;;;;;;21.52;63.52;101589.34;5033112;28;20516;-61
2022/05/20 00:40:59;;;;;;;7.20;6.90;;;;;;;21.51;63.29;101581.31;5033287;28;20108;-61
2022/05/20 00:43:28;;;;;;;7.65;7.25;;;;;;;21.53;62.75;101577.38;5033189;28;20112;-61
2022/05/20 00:45:57;;;;;;;7.30;7.00;;;;;;;21.55;62.72;101572.56;5033335;28;20496;-61
2022/05/20 00:48:22;;;;;;;7.55;7.25;;;;;;;21.56;62.33;101584.38;5033240;28;20025;-61
2022/05/20 00:51:13;;;;;;;7.40;7.00;;;;;;;21.58;62.65;101591.38;5033252;28;20029;-61
2022/05/20 00:53:56;;;;;;;7.63;7.32;;;;;;;21.57;62.45;101586.91;5024905;28;20448;-61
2022/05/20 00:56:31;;;;;;;7.25;6.95;;;;;;;21.59;62.25;101582.13;5033101;28;20511;-61
2022/05/20 00:58:58;;;;;;;7.60;7.30;;;;;;;21.61;62.36;101581.94;5037209;28;20053;-61
2022/05/20 01:01:25;;;;;;;7.15;6.85;;;;;;;21.62;62.31;101578.19;5036952;28;20026;-61
2022/05/20 01:03:52;;;;;;;7.30;7.00;;;;;;;21.63;61.65;101575.25;5033035;28;20040;-61
2022/05/20 01:06:18;;;;;;;7.47;7.07;;;;;;;21.65;62.00;101572.34;5033039;28;20071;-61
2022/05/20 01:08:44;;;;;;;7.97;7.57;;;;;;;21.63;62.17;101574.41;5033119;28;20100;-61
2022/05/20 01:11:10;;;;;;;7.38;7.07;;;;;;;21.65;61.92;101575.09;5033055;28;20017;-61
2022/05/20 01:13:36;;;;;;;7.90;7.50;;;;;;;21.65;61.29;101571.50;5036750;28;20044;-61
2022/05/20 01:16:07;;;;;;;7.70;7.40;;;;;;;21.66;61.47;101557.63;5036972;28;20357;-61
2022/05/20 01:18:36;;;;;;;7.40;7.10;;;;;;;21.67;61.18;101564.84;5036913;28;20053;-61
2022/05/20 01:21:02;;;;;;;7.63;7.32;;;;;;;21.67;61.60;101563.97;5036717;28;20519;-61
2022/05/20 01:23:28;;;;;;;7.90;7.50;;;;;;;21.68;61.54;101554.75;5036712;28;20230;-61
2022/05/20 01:25:57;;;;;;;7.70;7.30;;;;;;;21.71;61.37;101559.88;5036774;28;20091;-61
2022/05/20 01:28:25;;;;;;;7.72;7.32;;;;;;;21.70;61.00;101555.44;5036808;28;20026;-61
2022/05/20 01:30:57;;;;;;;7.57;7.22;;;;;;;21.69;61.19;101545.50;5039728;28;20031;-61
2022/05/20 01:33:24;;;;;;;7.53;7.22;;;;;;;21.69;61.25;101546.38;5036516;28;20021;-61
2022/05/20 01:35:50;;;;;;;7.18;6.88;;;;;;;21.71;60.58;101547.03;5036631;28;20100;-61
2022/05/20 01:38:16;;;;;;;7.40;7.10;;;;;;;21.71;61.19;101549.78;5036512;28;20029;-61
2022/05/20 01:40:49;;;;;;;7.20;6.90;;;;;;;21.71;60.40;101533.34;5036539;28;20104;-61
2022/05/20 01:43:17;;;;;;;7.47;7.07;;;;;;;21.70;61.22;101533.53;5036470;28;20112;-61
2022/05/20 01:45:57;;;;;;;7.53;7.22;;;;;;;21.71;60.48;101527.88;5036435;28;20036;-62
2022/05/20 01:48:50;;;;;;;7.70;7.38;;;;;;;21.74;60.94;101537.63;5036202;28;20021;-61
2022/05/20 01:51:19;;;;;;;7.30;7.00;;;;;;;21.71;60.54;101525.13;5036214;28;20029;-61
2022/05/20 01:53:50;;;;;;;7.53;7.18;;;;;;;21.73;61.17;101525.81;5035044;28;20404;-61
2022/05/20 01:56:25;;;;;;;7.35;7.05;;;;;;;21.72;60.53;101523.25;5036225;28;20029;-61
2022/05/20 01:59:14;;;;;;;7.43;7.13;;;;;;;21.74;61.11;101526.66;5036216;28;20063;-61
2022/05/20 02:02:06;;;;;;;7.38;7.07;;;;;;;21.71;61.08;101536.09;5039180;28;20025;-60
2022/05/20 02:04:44;;;;;;;7.28;6.97;;;;;;;21.74;61.28;101535.72;5035993;28;20061;-61
2022/05/20 02:07:20;;;;;;;7.38;6.97;;;;;;;21.74;60.77;101523.94;5036111;28;20469;-62
2022/05/20 02:09:52;;;;;;;7.63;7.32;;;;;;;21.74;60.43;101526.66;5035986;28;20037;-61
2022/05/20 02:12:21;;;;;;;7.43;7.13;;;;;;;21.74;60.54;101527.53;5035823;28;20108;-61
2022/05/20 02:14:54;;;;;;;8.07;7.50;;;;;;;21.75;60.81;101520.16;5035949;28;20018;-61
2022/05/20 02:18:00;;;;;;;7.10;6.80;;;;;;;21.74;60.58;101522.03;5035729;28;20472;-61
2022/05/20 02:20:37;;;;;;;7.30;7.00;;;;;;;21.74;61.27;101521.19;4993978;28;20066;-61
2022/05/20 02:23:09;;;;;;;7.53;7.22;;;;;;;21.73;60.91;101525.81;4993528;28;20042;-61
2022/05/20 02:25:42;;;;;;;7.75;7.35;;;;;;;21.74;61.22;101519.31;4993692;28;20052;-61
2022/05/20 02:28:13;;;;;;;7.30;7.00;;;;;;;21.75;61.47;101517.44;4996681;28;20243;-61
2022/05/20 02:30:41;;;;;;;7.53;7.22;;;;;;;21.75;60.18;101503.75;4993975;28;20493;-61
2022/05/20 02:33:14;;;;;;;7.70;7.40;;;;;;;21.78;60.78;101501.50;4994048;28;20068;-61
2022/05/20 02:35:41;;;;;;;7.20;6.90;;;;;;;21.75;60.89;101490.91;4993927;28;20041;-61
2022/05/20 02:38:11;;;;;;;7.28;6.97;;;;;;;21.77;60.43;101483.38;4993893;28;20085;-61
2022/05/20 02:40:38;;;;;;;7.38;7.05;;;;;;;21.75;60.73;101479.97;4993864;28;20030;-61
2022/05/20 02:43:03;;;;;;;7.57;7.22;;;;;;;21.77;60.43;101466.94;4993651;28;20559;-61
2022/05/20 02:45:28;;;;;;;7.85;7.55;;;;;;;21.75;60.21;101463.53;4993893;28;20027;-61
2022/05/20 02:47:54;;;;;;;7.63;7.32;;;;;;;21.77;60.55;101460.63;4993756;28;20426;-61
2022/05/20 02:50:19;;;;;;;7.78;7.40;;;;;;;21.75;61.22;101455.34;4993546;28;20172;-61
2022/05/20 02:52:45;;;;;;;7.50;7.20;;;;;;;21.75;61.12;101446.25;4993713;28;20117;-61
2022/05/20 02:55:11;;;;;;;7.20;6.90;;;;;;;21.76;60.93;101447.97;4993708;28;20065;-61
2022/05/20 02:57:37;;;;;;;7.35;7.05;;;;;;;21.75;60.19;101436.16;5031312;28;20033;-61
2022/05/20 03:05:34;;;;;;;7.10;6.80;;;;;;;21.79;61.60;101358.13;5034827;28;20143;-61
2022/05/20 03:07:59;;;;;;;7.30;7.00;;;;;;;21.82;61.63;101423.47;5034868;28;20065;-61
2022/05/20 03:10:25;;;;;;;7.00;6.70;;;;;;;21.80;62.20;101406.38;5034787;28;20025;-61
2022/05/20 03:12:51;;;;;;;7.07;6.78;;;;;;;21.79;61.55;101401.94;5033733;28;20457;-61
2022/05/20 03:15:17;;;;;;;7.30;7.00;;;;;;;21.80;61.34;101405.53;5034679;28;20104;-61
2022/05/20 03:17:43;;;;;;;7.38;7.07;;;;;;;21.77;61.50;101406.72;5034666;28;20017;-61
2022/05/20 03:20:09;;;;;;;7.75;7.45;;;;;;;21.79;62.32;101403.81;5034732;28;20044;-61
2022/05/20 03:22:36;;;;;;;7.40;7.10;;;;;;;21.80;61.89;101400.03;5034251;28;20081;-61
2022/05/20 03:25:04;;;;;;;7.93;7.63;;;;;;;21.82;61.74;101397.97;5034482;28;20053;-61
2022/05/20 03:27:30;;;;;;;7.13;6.82;;;;;;;21.79;61.39;101393.72;5034475;28;20052;-61
2022/05/20 03:29:55;;;;;;;7.43;7.13;;;;;;;21.80;61.61;101384.47;5034523;28;20033;-61
2022/05/20 03:32:21;;;;;;;7.15;6.85;;;;;;;21.79;61.84;101382.78;5035378;28;20024;-61
2022/05/20 03:34:46;;;;;;;7.25;6.90;;;;;;;21.82;61.99;101404.31;5034139;28;20104;-61
2022/05/20 03:37:12;;;;;;;7.00;6.70;;;;;;;21.82;61.62;101403.44;5034387;28;20491;-61
2022/05/20 03:39:37;;;;;;;6.97;6.68;;;;;;;21.81;62.00;101413.53;5034164;28;20029;-61
2022/05/20 03:42:03;;;;;;;7.00;6.70;;;;;;;21.81;61.81;101407.22;5034424;28;20053;-60
2022/05/20 03:44:29;;;;;;;7.00;6.70;;;;;;;21.81;62.06;101402.59;5033976;28;20025;-61
2022/05/20 03:46:56;;;;;;;7.30;7.00;;;;;;;21.80;62.54;101403.63;5034223;28;20032;-61
2022/05/20 03:49:25;;;;;;;7.10;6.80;;;;;;;21.80;61.87;101398.16;5034099;28;20037;-61
2022/05/20 03:51:52;;;;;;;7.20;6.90;;;;;;;21.81;61.98;101391.66;5034075;28;20071;-61
2022/05/20 03:54:19;;;;;;;6.95;6.65;;;;;;;21.81;62.04;101408.06;5034141;28;20372;-61
2022/05/20 03:56:45;;;;;;;7.07;6.78;;;;;;;21.81;62.16;101409.97;5034102;28;20486;-60
2022/05/20 03:59:11;;;;;;;7.22;6.93;;;;;;;21.81;61.75;101404.47;5034019;28;20064;-61
2022/05/20 04:01:58;;;;;;;0.20;0.20;;;;;;;21.93;62.57;101409.38;5033764;28;20021;-61
2022/05/20 04:04:27;;;;;;;0.40;0.40;;;;;;;22.53;60.82;101413.22;5033703;28;20103;-61
2022/05/20 04:06:52;;;;;;;0.30;0.30;;;;;;;22.79;60.27;101407.31;5034128;28;20104;-61
2022/05/20 04:09:17;;;;;;;0.20;0.20;;;;;;;23.01;59.69;101403.69;5033674;28;20108;-61
2022/05/20 04:11:43;;;;;;;0.20;0.20;;;;;;;23.20;59.59;101404.16;5035284;28;20034;-60
2022/05/20 04:14:09;;;;;;;0.93;0.10;;;;;;;23.37;59.82;101405.66;5037320;28;20021;-61
2022/05/20 04:16:35;;;;;;;0.22;0.17;;;;;;;23.53;60.19;101402.69;5033482;28;20473;-61
2022/05/20 04:19:00;;;;;;;0.20;0.20;;;;;;;23.66;60.29;101402.00;5033650;28;20039;-61
2022/05/20 04:21:26;;;;;;;0.20;0.20;;;;;;;23.82;60.54;101398.19;5033209;28;20045;-61
2022/05/20 04:23:51;;;;;;;0.93;0.20;;;;;;;23.95;60.90;101395.59;5033418;28;20033;-61
2022/05/20 04:26:17;;;;;;;0.25;0.10;;;;;;;24.05;61.07;101393.38;5033430;28;20047;-61
2022/05/20 04:28:43;;;;;;;0.20;0.10;;;;;;;24.16;61.31;101398.31;5033508;28;20091;-61
2022/05/20 04:31:10;;;;;;;0.40;0.20;;;;;;;24.27;60.74;101384.06;5033032;28;20029;-61
2022/05/20 04:33:36;;;;;;;0.93;0.30;;;;;;;24.37;60.79;101385.69;5032794;28;20476;-62
2022/05/20 04:36:02;;;;;;;0.28;0.10;;;;;;;24.45;61.39;101383.63;5031644;28;20427;-62
2022/05/20 04:38:27;;;;;;;0.05;0.05;;;;;;;24.45;62.27;101380.03;5032471;28;20029;-61
2022/05/20 04:49:27;;;;;;;0.40;0.10;;;;;;;23.05;55.96;101385.81;5010130;28;20091;-61
2022/05/20 04:51:53;;;;;;;0.15;0.10;;;;;;;22.98;53.96;101384.84;5010449;28;20057;-61
2022/05/20 04:57:03;;;;;;;0.15;0.10;;;;;;;22.74;51.79;101380.47;5011390;28;20072;-61
2022/05/20 04:59:28;;;;;;;0.08;0.08;;;;;;;22.74;51.26;101382.34;5010057;28;20034;-61
2022/05/20 05:01:54;;;;;;;0.28;0.15;;;;;;;22.63;51.24;101396.50;5010376;28;20034;-61
2022/05/20 05:04:20;;;;;;;0.90;0.13;;;;;;;22.64;52.22;101393.56;5010052;28;20026;-62
2022/05/20 05:06:47;;;;;;;0.75;0.10;;;;;;;22.55;50.68;101396.59;5010289;28;20033;-61
2022/05/20 05:09:12;;;;;;;0.10;0.10;;;;;;;22.63;50.39;101405.56;5010346;28;20033;-61
2022/05/20 05:11:39;;;;;;;0.10;0.10;;;;;;;22.58;50.56;101393.47;5010156;28;20041;-61
2022/05/20 05:14:09;;;;;;;0.40;0.20;;;;;;;22.61;50.07;101393.94;5010149;28;20030;-61
2022/05/20 05:16:35;;;;;;;0.50;0.10;;;;;;;22.54;50.83;101398.47;5010002;28;20160;-61
2022/05/20 05:19:00;;;;;;;0.10;0.10;;;;;;;22.59;49.57;101411.63;5010428;28;20524;-61
2022/05/20 05:21:26;;;;;;;1.23;0.22;;;;;;;22.63;50.84;101410.19;5031841;28;20060;-61
2022/05/20 05:23:53;;;;;;;0.20;0.20;;;;;;;22.62;50.76;101413.97;5032120;28;20079;-61
2022/05/20 05:26:19;;;;;;;0.20;0.20;;;;;;;22.58;51.45;101409.91;5032155;28;20029;-61
2022/05/20 05:28:44;;;;;;;0.95;0.20;;;;;;;22.52;51.15;101409.63;5032127;28;20026;-61
2022/05/20 05:31:09;;;;;;;0.10;0.10;;;;;;;22.62;50.27;101405.75;5032147;28;20033;-61
2022/05/20 05:33:35;;;;;;;1.30;0.13;;;;;;;22.48;51.30;101405.53;5031946;28;20028;-61
2022/05/20 05:36:00;;;;;;;0.10;0.10;;;;;;;22.55;50.20;101415.78;5032065;28;20435;-61
2022/05/20 05:38:25;;;;;;;0.30;0.20;;;;;;;22.54;51.91;101419.56;5031899;28;20018;-61
2022/05/20 05:40:51;;;;;;;0.40;0.20;;;;;;;22.55;51.30;101415.78;5037937;28;20031;-61
2022/05/20 05:43:16;;;;;;;0.40;0.20;;;;;;;22.60;50.14;101419.66;5033300;28;20079;-61
2022/05/20 05:45:41;;;;;;;0.20;0.20;;;;;;;22.67;51.20;101425.22;5032236;28;20017;-61
2022/05/20 05:48:09;;;;;;;0.10;0.10;;;;;;;22.61;51.07;101431.47;5031971;28;20021;-61
2022/05/20 05:50:38;;;;;;;0.90;0.10;;;;;;;22.59;50.10;101433.53;5032056;28;20384;-61
2022/05/20 05:53:15;;;;;;;0.75;0.25;;;;;;;22.62;50.00;101438.66;5031828;28;20061;-61
2022/05/20 05:55:43;;;;;;;0.35;0.03;;;;;;;22.57;51.21;101441.09;5032188;28;20084;-61
2022/05/20 05:58:09;;;;;;;0.10;0.10;;;;;;;22.46;50.46;101447.84;5031923;28;20036;-62
2022/05/20 06:00:35;;;;;;;0.52;0.10;;;;;;;22.64;50.22;101447.53;5035041;28;20048;-61
2022/05/20 06:03:00;;;;;;;0.25;0.10;;;;;;;22.43;50.28;101446.34;5035241;28;20026;-61
2022/05/20 06:05:26;;;;;;;0.80;0.28;;;;;;;22.54;50.20;101446.94;5035156;28;20017;-61
2022/05/20 06:07:52;;;;;;;0.20;0.20;;;;;;;22.58;50.68;101437.31;5035285;28;20112;-61
2022/05/20 06:10:19;;;;;;;0.57;0.10;;;;;;;22.50;51.00;101435.50;5035166;28;20476;-62
2022/05/20 06:12:44;;;;;;;0.20;0.20;;;;;;;22.55;51.11;101429.47;5035212;28;20108;-61
2022/05/20 06:15:16;;;;;;;0.40;0.20;;;;;;;22.54;49.96;101430.50;5035163;28;20495;-61
2022/05/20 06:17:41;;;;;;;0.35;0.03;;;;;;;22.56;51.59;101429.28;5035154;28;20451;-61
2022/05/20 06:20:08;;;;;;;1.38;0.15;;;;;;;22.58;51.16;101426.34;5035098;28;20473;-61
2022/05/20 06:22:33;;;;;;;0.35;0.15;;;;;;;22.62;50.68;101434.00;5034640;28;20053;-61
2022/05/20 06:24:58;;;;;;;0.10;0.10;;;;;;;22.56;50.85;101433.91;5038705;28;20025;-60
2022/05/20 06:27:24;;;;;;;0.20;0.20;;;;;;;22.59;50.07;101439.03;5037247;28;20484;-61
2022/05/20 06:29:51;;;;;;;0.13;0.00;;;;;;;22.56;52.39;101448.47;5034864;28;20096;-61
2022/05/20 06:32:16;;;;;;;0.22;0.10;;;;;;;22.66;50.22;101456.41;5034808;28;20044;-61
2022/05/20 06:40:14;;;;;;;0.43;0.30;;;;;;;22.50;51.11;101463.72;5034948;28;20036;-62
2022/05/20 06:42:40;;;;;;;0.55;0.10;;;;;;;22.57;50.26;101463.03;5034751;28;20028;-61
2022/05/20 06:45:06;;;;;;;0.10;0.10;;;;;;;22.55;50.02;101456.88;5034576;28;20021;-61
2022/05/20 06:47:31;;;;;;;0.65;0.10;;;;;;;22.60;51.52;101448.94;5034393;28;20025;-61
2022/05/20 06:49:56;;;;;;;0.30;0.10;;;;;;;22.58;50.35;101448.28;5034528;28;20021;-62
2022/05/20 06:52:22;;;;;;;0.10;0.10;;;;;;;22.54;52.13;101452.44;5034314;28;20032;-61
2022/05/20 06:54:47;;;;;;;0.45;0.20;;;;;;;22.63;50.75;101451.31;5034401;28;20025;-61
2022/05/20 06:57:20;;;;;;;0.30;0.10;;;;;;;22.55;50.69;101454.13;5034357;28;20049;-62
2022/05/20 06:59:45;;;;;;;0.13;0.13;;;;;;;22.54;50.23;101436.00;5034524;28;20036;-61
2022/05/20 07:02:11;;;;;;;0.20;0.10;;;;;;;22.57;50.98;101446.56;5034318;28;20112;-61
2022/05/20 07:04:37;;;;;;;3.08;0.20;;;;;;;22.54;50.59;101436.84;5032857;28;20026;-61
2022/05/20 07:07:03;;;;;;;0.22;0.08;;;;;;;22.57;51.51;101441.09;5030380;28;20471;-61
2022/05/20 07:09:29;;;;;;;0.20;0.20;;;;;;;22.56;51.38;101426.53;5032341;28;20500;-61
2022/05/20 07:11:55;;;;;;;0.10;0.10;;;;;;;22.57;51.29;101435.63;5033230;28;20108;-60
2022/05/20 07:14:21;;;;;;;0.10;0.10;;;;;;;22.52;51.12;101439.78;5037304;28;20024;-60
2022/05/20 07:16:46;;;;;;;0.10;0.10;;;;;;;22.65;51.10;101441.00;5034488;28;20017;-61
2022/05/20 07:19:11;;;;;;;0.10;0.10;;;;;;;22.58;50.94;101438.16;5015777;28;20026;-61
2022/05/20 07:21:37;;;;;;;0.68;0.20;;;;;;;22.44;51.11;101453.53;5013714;28;20081;-61
2022/05/20 07:24:04;;;;;;;0.30;0.10;;;;;;;22.48;51.67;101448.53;5013912;28;20048;-61
2022/05/20 07:26:30;;;;;;;0.20;0.20;;;;;;;22.59;50.07;101444.50;5013540;28;20447;-60
2022/05/20 07:28:56;;;;;;;0.50;0.20;;;;;;;22.59;50.98;101458.19;5014633;28;20052;-61
2022/05/20 07:31:23;;;;;;;0.10;0.10;;;;;;;22.54;50.92;101449.69;5013874;28;20524;-61
2022/05/20 07:33:49;;;;;;;0.30;0.20;;;;;;;22.58;51.51;101448.28;5013958;28;20052;-61
2022/05/20 07:36:15;;;;;;;0.20;0.10;;;;;;;22.55;50.39;101437.69;5013836;28;20057;-61
2022/05/20 07:38:40;;;;;;;1.60;0.20;;;;;;;22.64;51.06;101442.03;5013799;28;20041;-61
2022/05/20 07:41:06;;;;;;;0.47;0.10;;;;;;;22.66;50.34;101434.50;5013814;28;20045;-61
2022/05/20 07:43:32;;;;;;;0.73;0.20;;;;;;;22.62;50.94;101438.66;5013488;28;20133;-62
2022/05/20 07:45:58;;;;;;;0.20;0.20;;;;;;;22.61;51.12;101442.44;5014023;28;20076;-61
2022/05/20 07:48:24;;;;;;;0.75;0.10;;;;;;;22.61;51.42;101442.44;5013466;28;20488;-61
2022/05/20 07:50:56;;;;;;;0.10;0.10;;;;;;;22.54;51.34;101446.94;5013707;28;20030;-61
2022/05/20 07:53:32;;;;;;;1.08;0.10;;;;;;;22.51;50.94;101449.03;5013426;28;20100;-62
2022/05/20 07:56:10;;;;;;;1.35;0.28;;;;;;;22.55;49.99;101465.09;5012719;28;20025;-61
2022/05/20 07:58:43;;;;;;;0.82;0.20;;;;;;;22.66;51.70;101445.44;5014763;28;20029;-62
2022/05/20 08:01:08;;;;;;;0.47;0.10;;;;;;;22.71;51.77;101454.84;5013491;28;20065;-61
2022/05/20 08:06:20;;;;;;;0.03;0.03;;;;;;;22.63;51.74;101462.28;5013533;28;20129;-62
2022/05/20 08:08:45;;;;;;;0.30;0.10;;;;;;;22.62;51.25;101468.78;5013328;28;20105;-61
2022/05/20 08:11:10;;;;;;;0.38;0.00;;;;;;;22.67;50.98;101461.72;5011981;28;20021;-61
2022/05/20 08:13:36;;;;;;;0.10;0.10;;;;;;;22.62;50.79;101466.06;5013416;28;20512;-61
2022/05/20 08:16:01;;;;;;;1.30;0.22;;;;;;;22.63;51.33;101459.53;5013211;28;20026;-61
2022/05/20 08:18:26;;;;;;;0.30;0.20;;;;;;;22.67;50.50;101474.56;5013005;28;20061;-61
2022/05/20 08:20:52;;;;;;;0.45;0.10;;;;;;;22.67;51.28;101475.41;5012671;28;20113;-61
2022/05/20 08:23:17;;;;;;;0.63;0.10;;;;;;;22.67;50.88;101464.44;5012567;28;20030;-61
2022/05/20 08:25:42;;;;;;;0.32;0.10;;;;;;;22.61;51.87;101469.84;5013020;28;20050;-61
2022/05/20 08:28:08;;;;;;;0.00;0.00;;;;;;;22.48;51.41;101465.81;5013111;28;20396;-61
2022/05/20 08:30:34;;;;;;;0.10;0.00;;;;;;;22.63;50.02;101473.22;5028084;28;20021;-61
2022/05/20 08:32:59;;;;;;;0.47;0.13;;;;;;;22.61;51.16;101476.16;5028230;28;20087;-61
2022/05/20 08:35:26;;;;;;;0.63;0.10;;;;;;;22.63;50.89;101467.75;5012776;28;20029;-61
2022/05/20 08:37:52;;;;;;;0.43;0.10;;;;;;;22.55;51.27;101459.63;5013655;28;20093;-60
2022/05/20 08:40:25;;;;;;;0.40;0.30;;;;;;;22.63;50.26;101454.03;5013965;28;20034;-61
2022/05/20 08:42:53;;;;;;;0.25;0.08;;;;;;;22.56;51.01;101455.84;5012868;28;20022;-61
2022/05/20 08:45:24;;;;;;;0.40;0.10;;;;;;;22.65;51.33;101454.72;5012656;28;20034;-62
2022/05/20 08:47:51;;;;;;;0.68;0.10;;;;;;;22.65;50.62;101461.03;5011528;28;20029;-61
2022/05/20 08:50:20;;;;;;;0.75;0.20;;;;;;;22.58;51.54;101459.25;5012728;28;20077;-62
2022/05/20 08:52:46;;;;;;;0.40;0.10;;;;;;;22.62;50.09;101460.56;5012805;28;20030;-61
2022/05/20 08:55:12;;;;;;;0.15;0.10;;;;;;;22.65;50.35;101462.94;5012773;28;20026;-61
2022/05/20 08:57:44;;;;;;;0.17;0.05;;;;;;;22.70;50.17;101458.63;5012653;28;20034;-61
2022/05/20 09:00:12;;;;;;;0.57;0.13;;;;;;;22.63;50.82;101456.78;5012667;28;20033;-61
2022/05/20 09:02:38;;;;;;;0.35;0.10;;;;;;;22.58;51.58;101460.09;5012565;28;20046;-62
2022/05/20 09:05:13;;;;;;;0.10;0.00;;;;;;;22.65;50.96;101454.72;5012600;28;20022;-61
2022/05/20 09:08:00;;;;;;;0.28;0.10;;;;;;;22.66;50.62;101461.91;5012884;28;20044;-61
2022/05/20 09:10:47;;;;;;;0.50;0.10;;;;;;;22.64;52.01;101472.19;5012495;28;20049;-61
2022/05/20 09:16:22;;;;;;;0.65;0.13;;;;;;;22.75;50.61;101463.53;5012733;28;20061;-61
2022/05/20 09:19:09;;;;;;;0.17;0.08;;;;;;;22.67;50.69;101458.13;5012518;28;20030;-62
2022/05/20 09:21:39;;;;;;;0.10;0.10;;;;;;;22.66;51.19;101450.94;5012477;28;20049;-61
2022/05/20 09:24:08;;;;;;;0.35;0.20;;;;;;;22.72;51.75;101458.44;5012520;28;20048;-61
2022/05/20 09:26:43;;;;;;;0.85;0.10;;;;;;;22.55;52.27;101459.63;5012539;28;20151;-61
2022/05/20 09:29:12;;;;;;;0.60;0.20;;;;;;;22.59;51.83;101452.72;5012459;28;20029;-61
2022/05/20 09:31:48;;;;;;;0.55;0.20;;;;;;;22.69;50.70;101454.19;5011029;28;20026;-61
2022/05/20 09:34:25;;;;;;;0.63;0.10;;;;;;;22.64;51.53;101459.34;5015308;28;20038;-61
2022/05/20 09:36:58;;;;;;;0.28;0.17;;;;;;;22.73;50.54;101451.91;5016390;28;20493;-61
2022/05/20 09:39:38;;;;;;;0.40;0.10;;;;;;;22.62;51.25;101452.34;5016006;28;20373;-62
2022/05/20 09:42:14;;;;;;;0.10;0.10;;;;;;;22.65;51.74;101449.22;5016039;28;20038;-61
2022/05/20 09:44:43;;;;;;;0.63;0.10;;;;;;;22.65;51.70;101454.72;5016106;28;20063;-62
2022/05/20 09:47:33;;;;;;;0.85;0.10;;;;;;;22.69;51.81;101453.34;5015906;28;20088;-61
2022/05/20 09:50:25;;;;;;;0.43;0.15;;;;;;;22.76;50.08;101455.13;5015935;28;20032;-61
2022/05/20 09:52:56;;;;;;;0.30;0.10;;;;;;;22.68;51.03;101449.75;5015994;28;20457;-61
2022/05/20 09:55:26;;;;;;;0.00;0.00;;;;;;;22.68;51.81;101448.88;5015635;28;20060;-62
2022/05/20 09:57:55;;;;;;;0.30;0.00;;;;;;;22.60;50.15;101451.69;5015753;28;20025;-61
2022/05/20 10:00:26;;;;;;;0.43;0.10;;;;;;;22.75;51.88;101452.56;5015513;28;20535;-61
2022/05/20 10:03:39;;;;;;;0.20;0.10;;;;;;;22.63;51.59;101462.28;5015939;28;20028;-61
2022/05/20 10:06:30;;;;;;;0.82;0.10;;;;;;;22.68;51.71;101459.84;4974015;28;20045;-61
2022/05/20 10:09:05;;;;;;;0.40;0.20;;;;;;;22.64;50.82;101453.88;4955931;29;20388;-62
2022/05/20 10:11:38;;;;;;;0.50;0.15;;;;;;;22.64;49.67;101453.00;4954474;29;20039;-61
2022/05/20 10:14:14;;;;;;;1.27;0.10;;;;;;;22.56;52.06;101458.56;4938597;29;20118;-62
2022/05/20 10:16:49;;;;;;;0.55;0.30;;;;;;;22.71;51.37;101462.22;4954523;29;20342;-61
2022/05/20 10:19:26;;;;;;;0.10;0.10;;;;;;;22.66;51.56;101456.41;4954673;29;20078;-62
2022/05/20 10:22:04;;;;;;;0.43;0.10;;;;;;;22.64;51.02;101462.09;4954208;29;20051;-62
2022/05/20 10:24:45;;;;;;;0.10;0.10;;;;;;;22.63;51.29;101454.03;4957012;28;20034;-62
2022/05/20 10:27:33;;;;;;;0.25;0.10;;;;;;;22.63;50.45;101451.31;4970533;28;20066;-61
2022/05/20 10:33:08;;;;;;;0.50;0.10;;;;;;;22.75;52.07;101461.66;4954293;29;20602;-61
2022/05/20 10:35:47;;;;;;;0.50;0.13;;;;;;;22.68;50.22;101459.84;4952465;29;20035;-61
2022/05/20 10:38:34;;;;;;;0.22;0.17;;;;;;;22.69;50.99;101467.88;4953356;29;20030;-61
2022/05/20 10:41:19;;;;;;;0.30;0.10;;;;;;;22.82;51.67;101461.78;4953857;29;20071;-61
2022/05/20 10:50:03;;;;;;;0.68;0.10;;;;;;;22.64;51.09;101480.41;4992759;28;20496;-61
2022/05/20 10:52:38;;;;;;;0.10;0.10;;;;;;;22.74;51.54;101478.28;4992403;28;20041;-61
2022/05/20 10:55:06;;;;;;;0.20;0.20;;;;;;;22.77;50.34;101480.66;4976234;28;20125;-61
2022/05/20 10:57:47;;;;;;;0.10;0.10;;;;;;;22.72;52.17;101494.06;4992315;28;20081;-61
2022/05/20 11:00:19;;;;;;;0.75;0.30;;;;;;;22.71;51.48;101495.09;4992424;28;20446;-62
2022/05/20 11:02:50;;;;;;;0.03;0.03;;;;;;;22.70;50.93;101496.16;4976135;28;20023;-61
2022/05/20 11:05:21;;;;;;;0.10;0.10;;;;;;;22.74;51.30;101494.72;4992382;28;20030;-62
2022/05/20 11:08:08;;;;;;;0.30;0.30;;;;;;;22.75;52.53;101494.53;4992484;28;20050;-62
2022/05/20 11:10:51;;;;;;;0.10;0.10;;;;;;;22.80;51.33;101491.25;4992193;28;20358;-61
2022/05/20 11:14:02;;;;;;;0.28;0.20;;;;;;;22.73;50.65;101501.25;4992191;28;20138;-62
2022/05/20 11:16:45;;;;;;;0.60;0.20;;;;;;;22.70;50.58;101496.16;4988372;28;20037;-62
2022/05/20 11:19:35;;;;;;;0.77;0.70;;;;;;;22.76;50.48;101500.88;4992249;28;20030;-61
2022/05/20 11:22:18;;;;;;;1.00;0.10;;;;;;;22.66;51.16;101500.25;5013212;28;20092;-61
2022/05/20 11:25:05;;;;;;;0.75;0.30;;;;;;;22.72;51.03;101505.03;5013985;28;20026;-61
2022/05/20 11:27:55;;;;;;;0.85;0.30;;;;;;;22.70;52.01;101509.84;5013881;28;20041;-61
2022/05/20 11:30:37;;;;;;;0.30;0.28;;;;;;;22.76;50.76;101514.59;5013864;28;20018;-61
2022/05/20 11:33:03;;;;;;;0.75;0.20;;;;;;;22.78;50.46;101509.75;5015291;28;20033;-60
2022/05/20 11:35:55;;;;;;;1.27;0.20;;;;;;;22.73;50.41;101512.22;5015473;28;20029;-61
2022/05/20 11:38:42;;;;;;;0.10;0.10;;;;;;;22.75;51.07;101526.59;5013739;28;20022;-61
2022/05/20 11:41:43;;;;;;;0.10;0.10;;;;;;;22.71;51.61;101528.00;5013810;28;20058;-61
2022/05/20 11:44:14;;;;;;;0.75;0.20;;;;;;;22.70;51.13;101532.63;5013728;28;20037;-61
2022/05/20 11:47:01;;;;;;;0.25;0.25;;;;;;;22.76;51.16;101528.28;5013673;28;20104;-61
2022/05/20 11:49:48;;;;;;;0.20;0.20;;;;;;;22.71;51.67;101533.47;5013894;28;20319;-62
2022/05/20 11:52:32;;;;;;;0.65;0.20;;;;;;;22.79;50.50;101533.41;5012282;28;20026;-62
2022/05/20 11:55:10;;;;;;;0.28;0.22;;;;;;;22.76;51.63;101539.25;5013595;28;20025;-61
2022/05/20 11:57:40;;;;;;;0.47;0.13;;;;;;;22.77;50.49;101527.25;5013588;28;20030;-61
2022/05/20 12:00:09;;;;;;;0.25;0.25;;;;;;;22.84;50.34;101536.47;5013516;28;20049;-61
2022/05/20 12:03:11;;;;;;;0.13;0.10;;;;;;;22.78;51.47;101527.06;5013336;28;20388;-61
2022/05/20 12:05:40;;;;;;;1.08;0.10;;;;;;;22.80;51.35;101535.09;5010657;28;20034;-62
2022/05/20 12:08:06;;;;;;;0.00;0.00;;;;;;;22.81;50.63;101532.16;5013404;28;20022;-61
2022/05/20 12:10:31;;;;;;;0.75;0.20;;;;;;;22.74;50.29;101541.31;5013188;28;20358;-61
2022/05/20 12:13:16;;;;;;;0.30;0.10;;;;;;;22.78;51.26;101549.00;5013375;28;20401;-61
2022/05/20 12:15:43;;;;;;;;;;;;;;;22.75;50.99;101540.28;5013656;28;20259;-61
2022/05/20 12:24:23;;;;;;;0.38;0.10;;;;;;;22.77;51.35;101551.91;5013120;28;20029;-61